Time;durP1;ratioP1;P1;durP2;ratioP2;P2;SDS_P1;SDS_P2;PMS_P1;PMS_P2;Temp;Humidity;BMP_temperature;BMP_pressure;BME280_temperature;BME280_humidity;BME280_pressure;Samples;Min_cycle;Max_cycle;Signal;HPM_P1;HPM_P2
2023/04/13 00:01:20;;;;;;;4.80;2.80;;;;;;;11.14;100.00;99457.71;105855;1253;61130;-83
2023/04/13 00:03:47;;;;;;;9.50;6.70;;;;;;;11.14;100.00;99459.42;105903;1257;75185;-83
2023/04/13 00:06:14;;;;;;;5.40;3.00;;;;;;;11.14;100.00;99462.61;108782;1253;64100;-82
2023/04/13 00:08:42;;;;;;;4.10;3.00;;;;;;;11.13;100.00;99464.41;107607;1253;72605;-81
2023/04/13 00:11:10;;;;;;;4.60;3.40;;;;;;;11.14;100.00;99459.86;106315;1258;63162;-85
2023/04/13 00:13:41;;;;;;;5.00;3.10;;;;;;;11.13;100.00;99455.70;105744;1256;60341;-85
2023/04/13 00:16:14;;;;;;;3.30;3.00;;;;;;;11.11;100.00;99456.21;106010;1256;74830;-83
2023/04/13 00:18:46;;;;;;;4.60;3.40;;;;;;;11.07;100.00;99457.09;105828;1257;64701;-84
2023/04/13 00:21:15;;;;;;;4.10;3.60;;;;;;;11.03;100.00;99455.79;105876;1254;73672;-85
2023/04/13 00:23:43;;;;;;;3.40;3.10;;;;;;;11.01;100.00;99458.96;105887;1257;62819;-84
2023/04/13 00:26:14;;;;;;;5.60;3.50;;;;;;;10.97;100.00;99458.55;105875;1253;61275;-83
2023/04/13 00:28:43;;;;;;;3.90;3.60;;;;;;;10.93;100.00;99457.84;107474;1253;74710;-81
2023/04/13 00:31:11;;;;;;;6.10;3.70;;;;;;;10.89;100.00;99458.81;105965;1256;64773;-84
2023/04/13 00:33:40;;;;;;;6.30;3.80;;;;;;;10.88;100.00;99458.40;105824;1257;73333;-85
2023/04/13 00:36:07;;;;;;;4.80;3.90;;;;;;;10.86;100.00;99457.17;105762;1258;63000;-84
2023/04/13 00:38:34;;;;;;;5.40;3.70;;;;;;;10.83;100.00;99455.10;105821;1257;61055;-81
2023/04/13 00:41:03;;;;;;;4.70;3.50;;;;;;;10.82;100.00;99455.89;105918;1257;74909;-84
2023/04/13 00:43:31;;;;;;;4.50;4.00;;;;;;;10.81;100.00;99452.50;105920;1256;64621;-83
2023/04/13 00:45:59;;;;;;;3.60;3.30;;;;;;;10.78;100.00;99450.58;105991;1253;73663;-82
2023/04/13 00:48:33;;;;;;;3.40;3.10;;;;;;;10.76;100.00;99456.39;105711;1253;62989;-84
2023/04/13 00:51:01;;;;;;;4.00;3.50;;;;;;;10.75;100.00;99463.11;105804;1258;60312;-86
2023/04/13 00:53:29;;;;;;;4.10;3.50;;;;;;;10.73;100.00;99461.98;105852;1254;74620;-84
2023/04/13 00:55:57;;;;;;;5.70;4.80;;;;;;;10.72;100.00;99461.90;105872;1253;64476;-83
2023/04/13 00:58:26;;;;;;;7.40;5.30;;;;;;;10.72;100.00;99457.55;105814;1253;74123;-84
2023/04/13 01:00:53;;;;;;;5.70;4.10;;;;;;;10.73;100.00;99455.15;105817;1256;62386;-83
2023/04/13 01:03:21;;;;;;;4.30;3.60;;;;;;;10.75;100.00;99452.08;105791;1258;61257;-86
2023/04/13 01:06:08;;;;;;;6.30;4.40;;;;;;;10.76;100.00;99452.69;105808;1256;74087;-85
2023/04/13 01:08:42;;;;;;;6.20;3.70;;;;;;;10.77;100.00;99456.27;107904;1253;64632;-84
2023/04/13 01:11:18;;;;;;;4.50;4.10;;;;;;;10.80;100.00;99459.91;108497;1256;72803;-81
2023/04/13 01:13:51;;;;;;;6.30;4.20;;;;;;;10.84;100.00;99459.23;106552;1253;63049;-82
2023/04/13 01:16:26;;;;;;;4.90;3.80;;;;;;;10.88;100.00;99462.42;105859;1258;60468;-85
2023/04/13 01:18:53;;;;;;;4.50;3.60;;;;;;;10.92;100.00;99466.66;105851;1254;74866;-82
2023/04/13 01:21:23;;;;;;;3.30;3.00;;;;;;;10.92;100.00;99458.61;105823;1256;64154;-84
2023/04/13 01:24:29;;;;;;;4.40;3.90;;;;;;;10.92;100.00;99456.30;105885;1253;73725;-85
2023/04/13 01:27:20;;;;;;;3.70;3.40;;;;;;;10.93;100.00;99454.14;106037;1257;62910;-83
2023/04/13 01:29:48;;;;;;;6.50;5.30;;;;;;;10.96;100.00;99461.75;105609;1253;61203;-85
2023/04/13 01:32:16;;;;;;;7.90;5.30;;;;;;;10.99;100.00;99463.79;106032;1253;74607;-84
2023/04/13 01:34:44;;;;;;;4.80;4.00;;;;;;;11.01;100.00;99461.89;105714;1257;64853;-82
2023/04/13 01:37:13;;;;;;;6.30;3.20;;;;;;;11.03;100.00;99462.11;105724;1259;73847;-82
2023/04/13 01:39:40;;;;;;;5.70;2.80;;;;;;;11.02;100.00;99456.73;105785;1252;62902;-84
2023/04/13 01:42:30;;;;;;;4.30;3.90;;;;;;;10.98;100.00;99455.85;105923;1253;61227;-83
2023/04/13 01:44:57;;;;;;;4.20;3.10;;;;;;;10.94;100.00;99454.98;106058;1255;74923;-81
2023/04/13 01:47:24;;;;;;;1.80;1.70;;;;;;;10.91;100.00;99455.36;108299;1253;63469;-82
2023/04/13 01:50:09;;;;;;;1.20;1.10;;;;;;;10.87;100.00;99460.55;106321;1257;72654;-82
2023/04/13 01:52:49;;;;;;;1.70;1.60;;;;;;;10.84;100.00;99471.11;106032;1257;62943;-83
2023/04/13 01:55:16;;;;;;;2.20;1.90;;;;;;;10.81;100.00;99471.05;105795;1257;60395;-83
2023/04/13 01:57:48;;;;;;;2.60;1.60;;;;;;;10.78;100.00;99469.98;105742;1254;73881;-84
2023/04/13 02:00:19;;;;;;;2.50;2.00;;;;;;;10.77;100.00;99465.92;105755;1253;64560;-84
2023/04/13 02:02:47;;;;;;;3.60;1.90;;;;;;;10.75;100.00;99461.87;105774;1264;73519;-84
2023/04/13 02:05:15;;;;;;;2.20;2.00;;;;;;;10.74;100.00;99469.30;105795;1256;63208;-83
2023/04/13 02:07:45;;;;;;;2.90;2.20;;;;;;;10.73;100.00;99469.35;105835;1252;61334;-84
2023/04/13 02:10:12;;;;;;;3.40;2.00;;;;;;;10.70;100.00;99467.13;105992;1254;72743;-83
2023/04/13 02:12:40;;;;;;;2.50;2.30;;;;;;;10.68;100.00;99468.20;107273;1266;64722;-81
2023/04/13 02:15:08;;;;;;;1.80;1.70;;;;;;;10.66;100.00;99463.10;106924;1256;72613;-80
2023/04/13 02:17:40;;;;;;;3.40;2.30;;;;;;;10.63;100.00;99466.30;106570;1257;62860;-82
2023/04/13 02:20:10;;;;;;;3.10;2.20;;;;;;;10.58;100.00;99468.81;105785;1259;61923;-85
2023/04/13 02:22:46;;;;;;;4.60;3.60;;;;;;;10.53;100.00;99473.17;105928;1253;74815;-81
2023/04/13 02:25:16;;;;;;;9.00;6.90;;;;;;;10.47;100.00;99485.59;105932;1259;64486;-82
2023/04/13 02:27:43;;;;;;;3.40;3.10;;;;;;;10.40;100.00;99484.51;105925;1257;72512;-82
2023/04/13 02:30:10;;;;;;;4.40;2.90;;;;;;;10.35;100.00;99483.20;105910;1254;62146;-86
2023/04/13 02:32:57;;;;;;;4.30;3.10;;;;;;;10.30;100.00;99483.04;105766;1258;61705;-82
2023/04/13 02:35:24;;;;;;;2.80;2.50;;;;;;;10.25;100.00;99485.10;105778;1256;74866;-85
2023/04/13 02:37:52;;;;;;;5.40;3.10;;;;;;;10.22;100.00;99491.66;105793;1258;63791;-86
2023/04/13 02:40:21;;;;;;;4.50;3.00;;;;;;;10.22;100.00;99493.10;105873;1253;73859;-85
2023/04/13 02:42:50;;;;;;;4.10;2.90;;;;;;;10.22;100.00;99490.98;105767;1257;62942;-84
2023/04/13 02:45:17;;;;;;;3.60;3.30;;;;;;;10.20;100.00;99485.32;105859;1254;61150;-85
2023/04/13 02:47:53;;;;;;;2.90;2.70;;;;;;;10.18;100.00;99488.14;105794;1258;74468;-86
2023/04/13 02:50:21;;;;;;;3.10;2.90;;;;;;;10.15;100.00;99490.77;105888;1257;65358;-85
2023/04/13 02:52:58;;;;;;;4.00;3.40;;;;;;;10.12;100.00;99493.98;105803;1257;72655;-83
2023/04/13 02:55:26;;;;;;;2.60;2.40;;;;;;;10.07;100.00;99494.69;105787;1253;62779;-84
2023/04/13 02:57:58;;;;;;;2.50;2.20;;;;;;;10.02;100.00;99479.69;105846;1255;60329;-86
2023/04/13 03:00:25;;;;;;;4.30;3.70;;;;;;;10.00;100.00;99469.96;105813;1257;74646;-85
2023/04/13 03:03:16;;;;;;;5.30;4.20;;;;;;;9.97;100.00;99472.23;105645;1260;64479;-81
2023/04/13 03:05:46;;;;;;;4.30;3.90;;;;;;;9.96;100.00;99469.87;105872;1257;72813;-83
2023/04/13 03:08:16;;;;;;;5.50;4.50;;;;;;;9.94;100.00;99469.70;106010;1253;63104;-84
2023/04/13 03:11:00;;;;;;;3.80;3.50;;;;;;;9.90;100.00;99475.71;105795;1257;60464;-84
2023/04/13 03:13:27;;;;;;;4.90;3.50;;;;;;;9.85;100.00;99482.60;105902;1256;75112;-84
2023/04/13 03:15:56;;;;;;;4.50;3.60;;;;;;;9.82;100.00;99484.36;106313;1254;63693;-84
2023/04/13 03:18:26;;;;;;;3.10;2.90;;;;;;;9.82;100.00;99487.02;107814;1253;73321;-82
2023/04/13 03:20:53;;;;;;;3.60;3.30;;;;;;;9.81;100.00;99492.64;106895;1258;61765;-81
2023/04/13 03:23:21;;;;;;;3.80;3.30;;;;;;;9.84;100.00;99497.36;106132;1257;61087;-84
2023/04/13 03:25:50;;;;;;;4.70;4.00;;;;;;;9.88;100.00;99494.61;105834;1257;74661;-85
2023/04/13 03:28:18;;;;;;;6.20;4.60;;;;;;;9.91;100.00;99495.89;105778;1258;65093;-84
2023/04/13 03:30:45;;;;;;;5.10;4.60;;;;;;;9.95;100.00;99503.08;105749;1260;72101;-84
2023/04/13 03:33:16;;;;;;;5.40;4.70;;;;;;;10.02;100.00;99506.48;106060;1256;63283;-83
2023/04/13 03:35:43;;;;;;;4.50;4.20;;;;;;;10.06;100.00;99499.48;105903;1264;60432;-82
2023/04/13 03:38:17;;;;;;;4.20;3.80;;;;;;;10.11;100.00;99499.63;105832;1257;73146;-84
2023/04/13 03:40:45;;;;;;;3.40;3.10;;;;;;;10.15;100.00;99496.70;105821;1264;64747;-85
2023/04/13 03:43:12;;;;;;;3.60;3.30;;;;;;;10.18;100.00;99500.88;105865;1257;73551;-84
2023/04/13 03:45:45;;;;;;;3.60;3.30;;;;;;;10.18;100.00;99502.06;107452;1254;62644;-82
2023/04/13 03:48:14;;;;;;;8.00;5.60;;;;;;;10.19;100.00;99506.94;107093;1257;60432;-82
2023/04/13 03:50:41;;;;;;;4.00;3.70;;;;;;;10.19;100.00;99503.79;106024;1259;75388;-82
2023/04/13 03:53:08;;;;;;;8.30;7.50;;;;;;;10.21;100.00;99501.02;105901;1255;64199;-82
2023/04/13 03:55:36;;;;;;;6.00;3.00;;;;;;;10.23;100.00;99508.90;105745;1254;73435;-84
2023/04/13 03:58:10;;;;;;;4.60;2.80;;;;;;;10.24;100.00;99512.97;105797;1259;63216;-83
2023/04/13 04:00:38;;;;;;;2.40;2.20;;;;;;;10.26;100.00;99510.76;105687;1257;61052;-84
2023/04/13 04:03:16;;;;;;;3.30;2.60;;;;;;;10.27;100.00;99507.48;105906;1257;74900;-85
2023/04/13 04:05:52;;;;;;;2.60;2.40;;;;;;;10.30;100.00;99512.53;105858;1257;65399;-84
2023/04/13 04:08:20;;;;;;;3.10;2.80;;;;;;;10.34;100.00;99517.99;105995;1255;74259;-83
2023/04/13 04:10:50;;;;;;;3.50;3.20;;;;;;;10.40;100.00;99519.48;105667;1253;61945;-86
2023/04/13 04:13:18;;;;;;;4.00;2.50;;;;;;;10.45;100.00;99519.80;106026;1254;61063;-84
2023/04/13 04:15:53;;;;;;;3.00;2.70;;;;;;;10.50;100.00;99518.71;105990;1254;74916;-83
2023/04/13 04:18:21;;;;;;;2.70;2.40;;;;;;;10.53;100.00;99524.23;106042;1257;63483;-83
2023/04/13 04:20:53;;;;;;;2.90;2.60;;;;;;;10.53;100.00;99529.98;108191;1253;73895;-84
2023/04/13 04:23:29;;;;;;;7.60;3.50;;;;;;;10.51;100.00;99534.84;108562;1259;62009;-82
2023/04/13 04:26:02;;;;;;;12.60;9.90;;;;;;;10.52;100.00;99532.39;107416;1254;60495;-81
2023/04/13 04:28:37;;;;;;;3.80;3.50;;;;;;;10.55;100.00;99532.96;105881;1258;74615;-84
2023/04/13 04:31:11;;;;;;;3.80;3.20;;;;;;;10.58;100.00;99538.17;105706;1254;65317;-84
2023/04/13 04:33:41;;;;;;;5.00;3.90;;;;;;;10.59;100.00;99538.96;105785;1255;73525;-84
2023/04/13 04:36:12;;;;;;;4.20;3.80;;;;;;;10.59;100.00;99541.59;105914;1254;62961;-83
2023/04/13 04:38:56;;;;;;;4.40;3.80;;;;;;;10.60;100.00;99546.30;106030;1256;61552;-85
2023/04/13 04:41:24;;;;;;;5.70;4.60;;;;;;;10.62;100.00;99552.09;105832;1258;73815;-84
2023/04/13 04:43:56;;;;;;;5.00;4.50;;;;;;;10.65;100.00;99550.20;105694;1254;63862;-86
2023/04/13 04:46:31;;;;;;;3.80;3.50;;;;;;;10.70;100.00;99548.59;105797;1254;73333;-82
2023/04/13 04:49:02;;;;;;;8.10;3.50;;;;;;;10.74;100.00;99548.48;105799;1260;62709;-83
2023/04/13 04:51:32;;;;;;;4.20;2.80;;;;;;;10.77;100.00;99542.80;107387;1254;61331;-84
2023/04/13 04:54:02;;;;;;;4.30;3.10;;;;;;;10.85;100.00;99538.06;107307;1254;75008;-83
2023/04/13 04:56:29;;;;;;;4.20;3.00;;;;;;;10.89;100.00;99542.94;106183;1257;63697;-84
2023/04/13 04:59:01;;;;;;;4.20;3.10;;;;;;;10.93;100.00;99543.30;105884;1258;73531;-84
2023/04/13 05:01:44;;;;;;;3.90;3.50;;;;;;;10.99;100.00;99545.27;105896;1256;62562;-85
2023/04/13 05:04:12;;;;;;;4.00;3.60;;;;;;;11.06;100.00;99540.03;105883;1257;60380;-86
2023/04/13 05:06:43;;;;;;;4.20;3.80;;;;;;;11.13;100.00;99533.54;105740;1253;75239;-85
2023/04/13 05:09:17;;;;;;;;;;;;;;;11.19;100.00;99539.85;105825;1254;64771;-85
2023/04/13 05:11:47;;;;;;;4.50;3.70;;;;;;;11.23;100.00;99545.02;105851;1255;72510;-86
2023/04/13 05:14:16;;;;;;;2.60;2.30;;;;;;;11.26;100.00;99549.13;105959;1257;61844;-85
2023/04/13 05:16:44;;;;;;;3.40;2.90;;;;;;;11.30;100.00;99550.06;105851;1254;61033;-87
2023/04/13 05:19:36;;;;;;;2.10;1.90;;;;;;;11.36;100.00;99548.80;105818;1258;73268;-86
2023/04/13 05:22:24;;;;;;;2.10;1.90;;;;;;;11.44;100.00;99548.06;106138;1254;65324;-83
2023/04/13 05:24:57;;;;;;;3.30;3.00;;;;;;;11.48;100.00;99552.63;107602;1253;72670;-82
2023/04/13 05:27:24;;;;;;;2.10;1.90;;;;;;;11.52;100.00;99561.58;107107;1255;62218;-82
2023/04/13 05:29:56;;;;;;;1.70;1.60;;;;;;;11.53;100.00;99556.58;106384;1254;61277;-84
2023/04/13 05:32:24;;;;;;;2.90;2.10;;;;;;;11.54;100.00;99556.81;105610;1254;74385;-84
2023/04/13 05:34:52;;;;;;;2.60;2.40;;;;;;;11.58;100.00;99555.79;105956;1257;64326;-84
2023/04/13 05:37:23;;;;;;;3.70;3.10;;;;;;;11.63;100.00;99558.02;105879;1259;73509;-83
2023/04/13 05:39:51;;;;;;;2.90;2.70;;;;;;;11.67;100.00;99554.77;105825;1260;61652;-84
2023/04/13 05:42:20;;;;;;;3.70;3.40;;;;;;;11.65;100.00;99548.08;106130;1257;61640;-85
2023/04/13 05:44:48;;;;;;;3.00;2.70;;;;;;;11.62;100.00;99551.29;105949;1256;74657;-86
2023/04/13 05:47:20;;;;;;;3.00;2.70;;;;;;;11.62;100.00;99548.48;105853;1259;64942;-87
2023/04/13 05:49:47;;;;;;;2.90;2.70;;;;;;;11.68;100.00;99543.49;105952;1254;72708;-86
2023/04/13 05:52:16;;;;;;;2.80;2.60;;;;;;;11.74;100.00;99536.25;106952;1253;62812;-84
2023/04/13 05:54:45;;;;;;;2.80;2.60;;;;;;;11.84;100.00;99529.88;107742;1254;61372;-83
2023/04/13 05:57:15;;;;;;;2.20;2.00;;;;;;;11.94;99.85;99527.33;106255;1262;74664;-81
2023/04/13 05:59:45;;;;;;;3.20;2.90;;;;;;;12.02;99.23;99523.65;106135;1258;63752;-86
2023/04/13 06:02:13;;;;;;;3.50;3.20;;;;;;;12.08;98.65;99519.88;105877;1254;73962;-85
2023/04/13 06:04:42;;;;;;;3.80;3.40;;;;;;;12.11;98.46;99517.67;106002;1253;62002;-86
2023/04/13 06:07:15;;;;;;;3.70;2.70;;;;;;;12.12;98.19;99516.16;105955;1254;61418;-86
2023/04/13 06:09:42;;;;;;;2.80;2.40;;;;;;;12.11;98.26;99513.81;106319;1254;73881;-86
2023/04/13 06:12:10;;;;;;;5.90;3.90;;;;;;;12.11;98.12;99513.13;106369;1257;63631;-85
2023/04/13 06:14:38;;;;;;;4.90;3.50;;;;;;;12.11;97.81;99511.36;105913;1254;73572;-87
2023/04/13 06:17:05;;;;;;;5.10;3.90;;;;;;;12.12;97.80;99506.27;106106;1257;63054;-85
2023/04/13 06:19:32;;;;;;;4.00;3.40;;;;;;;12.11;98.20;99515.88;106031;1253;60463;-87
2023/04/13 06:22:00;;;;;;;2.90;2.60;;;;;;;12.12;98.49;99523.23;105983;1257;74713;-85
2023/04/13 06:24:29;;;;;;;2.30;2.10;;;;;;;12.15;98.34;99527.45;106064;1254;64813;-85
2023/04/13 06:26:57;;;;;;;3.50;2.30;;;;;;;12.22;98.11;99528.84;107185;1254;73603;-84
2023/04/13 06:29:25;;;;;;;1.70;1.60;;;;;;;12.30;97.73;99525.55;109197;1253;61871;-83
2023/04/13 06:31:58;;;;;;;3.80;1.90;;;;;;;12.36;97.13;99526.56;107227;1253;60425;-83
2023/04/13 06:34:26;;;;;;;1.80;1.70;;;;;;;12.45;96.58;99527.23;106130;1254;73495;-87
2023/04/13 06:36:53;;;;;;;1.80;1.70;;;;;;;12.52;96.39;99529.65;106068;1257;64591;-85
2023/04/13 06:39:21;;;;;;;2.00;1.90;;;;;;;12.58;95.91;99534.00;105822;1254;74290;-85
2023/04/13 06:41:55;;;;;;;2.40;2.20;;;;;;;12.65;95.63;99539.21;105901;1257;61963;-84
2023/04/13 06:44:42;;;;;;;1.80;1.60;;;;;;;12.73;95.51;99543.98;105806;1254;61335;-87
2023/04/13 06:47:10;;;;;;;2.50;2.30;;;;;;;12.79;94.91;99555.02;105876;1254;73748;-86
2023/04/13 06:49:43;;;;;;;2.20;2.10;;;;;;;12.83;94.70;99560.30;105792;1266;64875;-85
2023/04/13 06:52:11;;;;;;;2.50;2.30;;;;;;;12.87;94.50;99569.95;105807;1260;73438;-88
2023/04/13 06:54:38;;;;;;;2.70;2.50;;;;;;;12.89;94.51;99574.00;105864;1254;60973;-86
2023/04/13 06:57:12;;;;;;;4.50;3.70;;;;;;;12.92;94.31;99575.64;106148;1255;61244;-83
2023/04/13 06:59:40;;;;;;;2.60;2.40;;;;;;;12.96;93.83;99581.27;106137;1257;74987;-84
2023/04/13 07:02:08;;;;;;;2.30;2.10;;;;;;;12.97;93.49;99583.45;105935;1254;64092;-88
2023/04/13 07:04:37;;;;;;;2.10;2.00;;;;;;;12.97;93.34;99588.20;106020;1254;73451;-88
2023/04/13 07:07:04;;;;;;;1.50;1.40;;;;;;;12.98;93.40;99592.17;105913;1258;63247;-85
2023/04/13 07:09:31;;;;;;;2.80;2.60;;;;;;;12.98;93.58;99590.20;105950;1254;60604;-85
2023/04/13 07:12:03;;;;;;;4.00;2.70;;;;;;;12.99;93.43;99592.98;105693;1260;533379;-86
2023/04/13 07:16:08;;;;;;;2.90;2.20;;;;;;;13.05;93.63;99590.83;103051;1287;616305;-87
2023/04/13 07:18:37;;;;;;;4.50;3.40;;;;;;;13.09;93.36;99592.96;104965;1272;60260;-85
2023/04/13 07:21:07;;;;;;;3.70;3.00;;;;;;;13.10;93.35;99593.23;104977;1267;61245;-85
2023/04/13 07:23:44;;;;;;;4.60;3.40;;;;;;;13.10;93.26;99587.44;105151;1266;72284;-85
2023/04/13 07:26:15;;;;;;;3.90;3.60;;;;;;;13.09;93.32;99584.34;105424;1267;64958;-87
2023/04/13 07:28:47;;;;;;;3.20;2.90;;;;;;;13.06;93.05;99582.62;105168;1266;741738;-87
2023/04/13 07:31:15;;;;;;;3.90;2.50;;;;;;;13.07;93.26;99588.58;107545;1265;63734;-84
2023/04/13 07:33:47;;;;;;;3.90;2.90;;;;;;;13.09;93.10;99592.95;108147;1268;60370;-84
2023/04/13 07:36:23;;;;;;;4.90;3.00;;;;;;;13.12;92.96;99595.70;106581;1268;72080;-83
2023/04/13 07:38:52;;;;;;;6.20;3.20;;;;;;;13.15;92.91;99595.23;105384;1269;63796;-86
2023/04/13 07:41:21;;;;;;;2.70;2.50;;;;;;;13.16;92.78;99595.16;105380;1269;72615;-85
2023/04/13 07:43:51;;;;;;;4.80;2.60;;;;;;;13.16;92.69;99596.76;106363;1269;60053;-83
2023/04/13 07:46:19;;;;;;;3.70;3.10;;;;;;;13.14;92.68;99598.69;107253;1269;60004;-84
2023/04/13 07:48:49;;;;;;;4.30;3.10;;;;;;;13.11;92.40;99599.59;105841;1259;73488;-86
2023/04/13 07:51:21;;;;;;;6.90;3.00;;;;;;;13.06;92.52;99602.84;105650;1257;63667;-85
2023/04/13 07:53:51;;;;;;;3.50;3.20;;;;;;;13.03;92.83;99602.26;105485;1261;72517;-86
2023/04/13 07:56:18;;;;;;;7.40;6.60;;;;;;;12.99;92.94;99603.77;105619;1263;62664;-84
2023/04/13 07:58:45;;;;;;;3.00;2.70;;;;;;;12.96;93.24;99600.35;105723;1259;59548;-86
2023/04/13 08:01:13;;;;;;;2.70;2.50;;;;;;;12.93;93.44;99600.86;105635;1258;73115;-85
2023/04/13 08:03:40;;;;;;;8.40;3.10;;;;;;;12.87;93.75;99605.02;105662;1257;64962;-86
2023/04/13 08:06:13;;;;;;;3.30;3.00;;;;;;;12.84;93.97;99607.75;105688;1260;72578;-85
2023/04/13 08:08:42;;;;;;;3.60;3.30;;;;;;;12.82;94.09;99606.17;105724;1260;62857;-84
2023/04/13 08:11:09;;;;;;;3.80;3.50;;;;;;;12.81;93.88;99606.00;105803;1261;60289;-85
2023/04/13 08:13:39;;;;;;;10.60;9.20;;;;;;;12.79;93.88;99600.27;105648;1262;74010;-84
2023/04/13 08:16:08;;;;;;;4.30;4.00;;;;;;;12.76;93.85;99599.64;105724;1261;64690;-84
2023/04/13 08:18:37;;;;;;;5.50;4.20;;;;;;;12.72;94.02;99598.75;105600;1260;73843;-86
2023/04/13 08:21:09;;;;;;;4.70;4.30;;;;;;;12.70;94.11;99599.27;105750;1259;61923;-85
2023/04/13 08:23:41;;;;;;;5.40;3.70;;;;;;;12.69;93.97;99596.79;105764;1256;61231;-87
2023/04/13 08:26:16;;;;;;;5.20;4.80;;;;;;;12.68;94.32;99603.81;105916;1258;74260;-86
2023/04/13 08:28:43;;;;;;;2.80;2.60;;;;;;;12.72;94.30;99604.38;106114;1253;63664;-85
2023/04/13 08:31:13;;;;;;;3.10;2.90;;;;;;;12.77;94.38;99599.95;106895;1258;73633;-82
2023/04/13 08:33:43;;;;;;;4.50;3.00;;;;;;;12.81;93.92;99597.98;107551;1254;61947;-84
2023/04/13 08:36:16;;;;;;;5.10;3.60;;;;;;;12.84;93.66;99598.93;108566;1253;60211;-84
2023/04/13 08:39:09;;;;;;;4.60;4.20;;;;;;;12.90;93.79;99600.77;107638;1259;73662;-81
2023/04/13 08:41:46;;;;;;;4.60;4.20;;;;;;;12.93;93.57;99596.39;106688;1260;63937;-86
2023/04/13 08:44:15;;;;;;;4.90;4.40;;;;;;;12.98;93.50;99597.23;106030;1257;73253;-85
2023/04/13 08:46:50;;;;;;;5.20;4.70;;;;;;;13.05;93.32;99598.40;106165;1258;63111;-85
2023/04/13 08:49:25;;;;;;;7.10;6.10;;;;;;;13.10;93.43;99594.27;105977;1254;60117;-86
2023/04/13 08:52:31;;;;;;;6.10;5.50;;;;;;;13.16;93.51;99592.36;105908;1257;74029;-85
2023/04/13 08:55:01;;;;;;;7.90;6.10;;;;;;;13.17;93.29;99588.02;105632;1260;64693;-82
2023/04/13 08:57:31;;;;;;;7.30;6.60;;;;;;;13.18;93.30;99589.52;105793;1260;72665;-86
2023/04/13 08:59:58;;;;;;;7.00;6.30;;;;;;;13.17;93.01;99591.91;105785;1267;61831;-86
2023/04/13 09:02:34;;;;;;;8.70;7.10;;;;;;;13.14;92.69;99589.90;105811;1259;60367;-84
2023/04/13 09:05:12;;;;;;;7.10;6.40;;;;;;;13.10;92.98;99589.55;105810;1266;74827;-86
2023/04/13 09:07:42;;;;;;;8.30;6.70;;;;;;;13.06;93.35;99589.13;106353;1258;64845;-83
2023/04/13 09:10:15;;;;;;;6.60;5.50;;;;;;;13.05;93.63;99585.77;107091;1258;73949;-84
2023/04/13 09:12:47;;;;;;;8.10;6.80;;;;;;;13.04;93.78;99584.45;106486;1262;63614;-83
2023/04/13 09:15:14;;;;;;;7.40;6.70;;;;;;;13.05;93.86;99580.63;106002;1267;60305;-85
2023/04/13 09:18:12;;;;;;;7.70;7.00;;;;;;;13.09;93.74;99583.35;105920;1259;71980;-83
2023/04/13 09:20:58;;;;;;;10.50;8.20;;;;;;;13.09;93.98;99586.45;105993;1258;64527;-87
2023/04/13 09:23:26;;;;;;;8.20;7.40;;;;;;;13.10;93.96;99587.25;105838;1259;73546;-84
2023/04/13 09:26:09;;;;;;;8.00;7.00;;;;;;;13.11;93.59;99591.40;105981;1260;62968;-87
2023/04/13 09:28:46;;;;;;;7.50;6.30;;;;;;;13.11;93.54;99589.11;106239;1253;61263;-84
2023/04/13 09:31:14;;;;;;;7.50;6.60;;;;;;;13.09;93.75;99586.26;106180;1258;72999;-87
2023/04/13 09:33:45;;;;;;;7.40;6.70;;;;;;;13.08;93.84;99584.82;106274;1254;65055;-85
2023/04/13 09:36:17;;;;;;;6.80;6.00;;;;;;;13.08;93.86;99583.54;106815;1254;73357;-84
2023/04/13 09:38:54;;;;;;;7.60;7.00;;;;;;;13.11;93.64;99580.80;108554;1254;60178;-83
2023/04/13 09:41:35;;;;;;;7.60;6.80;;;;;;;13.13;93.59;99577.83;108828;1254;60108;-82
2023/04/13 09:44:17;;;;;;;8.20;7.00;;;;;;;13.13;93.25;99580.98;107253;1254;73998;-85
2023/04/13 09:47:02;;;;;;;6.70;6.00;;;;;;;13.17;93.22;99587.86;106067;1256;62601;-85
2023/04/13 09:49:40;;;;;;;7.30;6.00;;;;;;;13.15;92.83;99586.59;106003;1257;73833;-85
2023/04/13 09:52:24;;;;;;;9.10;5.80;;;;;;;13.16;92.85;99587.58;105780;1260;60982;-86
2023/04/13 09:54:53;;;;;;;5.30;4.80;;;;;;;13.19;92.81;99588.55;105947;1255;61231;-84
2023/04/13 09:57:27;;;;;;;10.40;5.70;;;;;;;13.23;93.25;99589.08;105907;1254;73271;-85
2023/04/13 09:59:56;;;;;;;9.30;5.50;;;;;;;13.28;93.27;99592.85;105892;1267;64826;-85
2023/04/13 10:02:24;;;;;;;7.50;5.30;;;;;;;13.32;93.37;99595.34;105942;1255;73743;-83
2023/04/13 10:04:52;;;;;;;6.40;5.90;;;;;;;13.28;92.86;99595.48;106453;1257;61186;-83
2023/04/13 10:07:25;;;;;;;6.10;5.60;;;;;;;13.20;93.33;99599.55;106153;1258;60409;-84
2023/04/13 10:09:53;;;;;;;6.20;5.60;;;;;;;13.12;93.54;99598.66;105824;1257;73468;-86
2023/04/13 10:12:21;;;;;;;5.80;5.20;;;;;;;13.04;93.57;99601.43;106082;1256;64860;-84
2023/04/13 10:14:47;;;;;;;5.20;4.70;;;;;;;12.99;93.78;99607.09;106567;1256;72607;-83
2023/04/13 10:17:15;;;;;;;5.00;4.60;;;;;;;12.97;94.00;99606.60;106556;1255;62743;-84
2023/04/13 10:19:45;;;;;;;4.30;4.00;;;;;;;12.94;94.13;99607.56;106475;1254;62284;-82
2023/04/13 10:22:12;;;;;;;4.20;3.90;;;;;;;12.95;94.36;99608.23;106040;1257;74139;-86
2023/04/13 10:24:43;;;;;;;6.30;5.70;;;;;;;12.96;94.43;99606.65;106304;1254;64046;-85
2023/04/13 10:27:17;;;;;;;6.80;6.00;;;;;;;12.99;94.11;99608.77;105824;1254;72540;-85
2023/04/13 10:29:44;;;;;;;7.30;6.70;;;;;;;13.00;93.76;99607.25;105998;1257;61051;-86
2023/04/13 10:32:25;;;;;;;8.40;7.60;;;;;;;13.01;93.72;99607.65;106085;1253;61073;-89
2023/04/13 10:34:53;;;;;;;8.00;6.90;;;;;;;13.01;93.55;99604.88;106420;1258;74199;-86
2023/04/13 10:37:22;;;;;;;7.90;7.00;;;;;;;12.95;93.36;99607.27;108242;1254;64576;-84
2023/04/13 10:40:05;;;;;;;7.70;6.90;;;;;;;12.93;93.75;99607.67;108044;1253;72345;-85
2023/04/13 10:42:46;;;;;;;7.90;6.70;;;;;;;12.95;93.94;99612.42;109512;1253;62198;-85
2023/04/13 10:45:31;;;;;;;6.40;5.80;;;;;;;12.95;94.40;99612.59;109211;1253;60261;-87
2023/04/13 10:47:58;;;;;;;6.60;6.10;;;;;;;12.96;94.57;99616.89;108151;1252;72795;-86
2023/04/13 10:50:28;;;;;;;7.00;6.40;;;;;;;12.96;94.96;99619.33;107325;1257;63641;-88
2023/04/13 10:53:05;;;;;;;7.60;7.00;;;;;;;12.98;95.14;99622.84;106980;1257;73579;-86
2023/04/13 10:55:33;;;;;;;8.10;7.40;;;;;;;13.02;95.02;99623.70;106674;1257;61370;-88
2023/04/13 10:58:02;;;;;;;8.10;7.30;;;;;;;13.04;94.75;99620.35;105918;1257;60081;-86
2023/04/13 11:00:29;;;;;;;9.00;8.10;;;;;;;13.03;94.52;99621.16;105952;1256;74656;-85
2023/04/13 11:03:13;;;;;;;7.60;6.90;;;;;;;13.03;94.72;99618.91;106045;1257;64613;-86
2023/04/13 11:05:42;;;;;;;9.40;8.20;;;;;;;13.05;94.74;99613.48;106158;1254;73681;-85
2023/04/13 11:08:17;;;;;;;9.10;8.20;;;;;;;13.07;94.64;99612.44;106186;1257;63057;-85
2023/04/13 11:10:51;;;;;;;8.70;7.80;;;;;;;13.14;94.64;99613.20;106113;1255;59998;-86
2023/04/13 11:13:20;;;;;;;12.80;11.40;;;;;;;13.21;94.32;99613.31;106099;1256;72902;-87
2023/04/13 11:15:48;;;;;;;12.90;11.60;;;;;;;13.25;94.34;99616.25;106015;1254;62589;-87
2023/04/13 11:18:25;;;;;;;30.70;22.30;;;;;;;13.26;93.81;99617.77;105944;1254;74163;-87
2023/04/13 11:20:52;;;;;;;12.80;11.50;;;;;;;13.23;93.41;99620.49;105994;1257;61396;-86
2023/04/13 11:23:22;;;;;;;14.30;11.90;;;;;;;13.21;93.24;99621.75;105913;1254;60934;-87
2023/04/13 11:25:54;;;;;;;15.80;13.50;;;;;;;13.15;92.93;99626.11;105904;1257;73703;-88
2023/04/13 11:28:22;;;;;;;15.40;12.70;;;;;;;13.10;92.94;99623.89;105926;1257;63819;-88
2023/04/13 11:30:54;;;;;;;15.10;12.70;;;;;;;13.09;93.45;99622.80;106114;1254;73157;-86
2023/04/13 11:33:27;;;;;;;14.40;12.80;;;;;;;13.11;93.67;99617.22;106188;1257;62790;-85
2023/04/13 11:35:55;;;;;;;15.70;12.60;;;;;;;13.13;93.44;99612.09;106549;1255;61865;-85
2023/04/13 11:38:22;;;;;;;17.40;15.40;;;;;;;13.14;93.40;99604.14;107025;1257;74836;-85
2023/04/13 11:40:50;;;;;;;16.20;13.80;;;;;;;13.17;93.59;99605.95;107103;1257;63858;-86
2023/04/13 11:43:28;;;;;;;17.50;15.60;;;;;;;13.20;93.43;99609.52;107994;1254;72624;-87